RYR159P EYVI-EDDB
Flight info
| Callsign | RYR159P |
|---|---|
| Flight time | N/A |
| Altitude | 36000 |
| Route | UPASI DCT TUNGA DCT SUWGI DCT GRUDA DCT KELOD L979 GOVEN T205 NUKRO NUKRO1R |
| Aircraft | B738/M-SDE2E3FGHIRWXY/LB1 |
Departure
| Time | 2026-05-07 17:08 |
|---|---|
| Airport | Vilnius International Airport (EYVI) |
Arrival
| Time | N/A |
|---|---|
| Airport | Berlin Brandenburg Airport (EDDB) |
| Time | Latitude | Longitude | Altitude | Speed | Heading |
|---|---|---|---|---|---|
| 2026-05-07 16:30 | 54.64233 | 25.28120 | 641 ft | 0 kts | 360° |
| 2026-05-07 16:59 | 54.64216 | 25.28121 | 636 ft | 3 kts | 349° |
| 2026-05-07 16:59 | 54.64195 | 25.28132 | 641 ft | 3 kts | 327° |
| 2026-05-07 16:59 | 54.64179 | 25.28157 | 641 ft | 3 kts | 301° |
| 2026-05-07 16:59 | 54.64170 | 25.28192 | 638 ft | 3 kts | 275° |
| 2026-05-07 17:00 | 54.64170 | 25.28219 | 636 ft | 0 kts | 258° |
| 2026-05-07 17:05 | 54.64161 | 25.28192 | 641 ft | 6 kts | 227° |
| 2026-05-07 17:05 | 54.64112 | 25.28174 | 643 ft | 11 kts | 167° |
| 2026-05-07 17:05 | 54.64007 | 25.28215 | 638 ft | 20 kts | 168° |
| 2026-05-07 17:05 | 54.63908 | 25.28244 | 640 ft | 17 kts | 171° |
| 2026-05-07 17:06 | 54.63805 | 25.28286 | 634 ft | 8 kts | 166° |
| 2026-05-07 17:06 | 54.63731 | 25.28318 | 630 ft | 15 kts | 166° |
| 2026-05-07 17:06 | 54.63612 | 25.28359 | 627 ft | 11 kts | 170° |
| 2026-05-07 17:06 | 54.63516 | 25.28400 | 620 ft | 18 kts | 168° |
| 2026-05-07 17:07 | 54.63431 | 25.28547 | 616 ft | 19 kts | 82° |
| 2026-05-07 17:07 | 54.63539 | 25.28660 | 616 ft | 19 kts | 18° |
| 2026-05-07 17:07 | 54.63661 | 25.28746 | 624 ft | 24 kts | 22° |
| 2026-05-07 17:07 | 54.64040 | 25.29009 | 644 ft | 93 kts | 22° |
| 2026-05-07 17:08 | 54.64772 | 25.29479 | 685 ft | 142 kts | 15° |
| 2026-05-07 17:08 | 54.65560 | 25.29955 | 1201 ft | 139 kts | 16° |
| 2026-05-07 17:08 | 54.66506 | 25.30562 | 1737 ft | 156 kts | 21° |
| 2026-05-07 17:08 | 54.67444 | 25.31247 | 2218 ft | 178 kts | 21° |
| 2026-05-07 17:09 | 54.68675 | 25.32134 | 2566 ft | 204 kts | 20° |
| 2026-05-07 17:09 | 54.70059 | 25.33155 | 2814 ft | 226 kts | 21° |
| 2026-05-07 17:09 | 54.71562 | 25.34221 | 3286 ft | 238 kts | 20° |
| 2026-05-07 17:09 | 54.73127 | 25.35275 | 3867 ft | 244 kts | 19° |
| 2026-05-07 17:10 | 54.74732 | 25.36361 | 4427 ft | 250 kts | 20° |
| 2026-05-07 17:10 | 54.76365 | 25.37472 | 5029 ft | 254 kts | 19° |
| 2026-05-07 17:10 | 54.78080 | 25.38110 | 5645 ft | 253 kts | 356° |
| 2026-05-07 17:10 | 54.79784 | 25.37510 | 5978 ft | 247 kts | 334° |
| 2026-05-07 17:11 | 54.81275 | 25.36091 | 5998 ft | 244 kts | 315° |
| 2026-05-07 17:11 | 54.82174 | 25.33676 | 6027 ft | 239 kts | 290° |
| 2026-05-07 17:11 | 54.82790 | 25.30993 | 6010 ft | 240 kts | 289° |
| 2026-05-07 17:11 | 54.83404 | 25.28304 | 6009 ft | 240 kts | 289° |
| 2026-05-07 17:12 | 54.83895 | 25.25554 | 5995 ft | 238 kts | 273° |
| 2026-05-07 17:12 | 54.82673 | 25.20640 | 6773 ft | 240 kts | 224° |
| 2026-05-07 17:12 | 54.81250 | 25.19145 | 7422 ft | 242 kts | 207° |
| 2026-05-07 17:13 | 54.79681 | 25.18042 | 8004 ft | 245 kts | 204° |
| 2026-05-07 17:13 | 54.76394 | 25.15842 | 9241 ft | 249 kts | 205° |
| 2026-05-07 17:13 | 54.74733 | 25.14703 | 9540 ft | 266 kts | 205° |
| 2026-05-07 17:14 | 54.72998 | 25.13505 | 10114 ft | 275 kts | 205° |
| 2026-05-07 17:14 | 54.71141 | 25.12157 | 10402 ft | 297 kts | 211° |
| 2026-05-07 17:14 | 54.69497 | 25.09931 | 10682 ft | 313 kts | 227° |
| 2026-05-07 17:14 | 54.67945 | 25.07209 | 11322 ft | 320 kts | 227° |
| 2026-05-07 17:15 | 54.66381 | 25.04455 | 11800 ft | 321 kts | 227° |
| 2026-05-07 17:15 | 54.64802 | 25.01692 | 11960 ft | 325 kts | 227° |
| 2026-05-07 17:15 | 54.63207 | 24.98921 | 11952 ft | 325 kts | 226° |
| 2026-05-07 17:15 | 54.61612 | 24.96170 | 11952 ft | 324 kts | 226° |
| 2026-05-07 17:16 | 54.60018 | 24.93429 | 11955 ft | 324 kts | 226° |
| 2026-05-07 17:16 | 54.58400 | 24.90655 | 12298 ft | 331 kts | 226° |
| 2026-05-07 17:16 | 54.56773 | 24.87871 | 13203 ft | 329 kts | 226° |
| 2026-05-07 17:16 | 54.55148 | 24.85092 | 14047 ft | 330 kts | 226° |
| 2026-05-07 17:17 | 54.53708 | 24.82635 | 14639 ft | 333 kts | 226° |
| 2026-05-07 17:17 | 54.52054 | 24.79816 | 15325 ft | 337 kts | 226° |
| 2026-05-07 17:17 | 54.50396 | 24.76944 | 16001 ft | 340 kts | 229° |
| 2026-05-07 17:17 | 54.49130 | 24.73504 | 16656 ft | 344 kts | 245° |
| 2026-05-07 17:18 | 54.48239 | 24.69670 | 17346 ft | 347 kts | 247° |
| 2026-05-07 17:18 | 54.47371 | 24.65765 | 17983 ft | 352 kts | 248° |
| 2026-05-07 17:18 | 54.46495 | 24.61806 | 18568 ft | 356 kts | 247° |
| 2026-05-07 17:18 | 54.45606 | 24.57827 | 19172 ft | 358 kts | 247° |
| 2026-05-07 17:19 | 54.44706 | 24.53840 | 19789 ft | 359 kts | 246° |
| 2026-05-07 17:19 | 54.43793 | 24.49829 | 20385 ft | 362 kts | 246° |
| 2026-05-07 17:19 | 54.42870 | 24.45797 | 20955 ft | 364 kts | 246° |
| 2026-05-07 17:19 | 54.41938 | 24.41738 | 21527 ft | 367 kts | 246° |
| 2026-05-07 17:20 | 54.40999 | 24.37658 | 22088 ft | 369 kts | 246° |
| 2026-05-07 17:20 | 54.40051 | 24.33545 | 22634 ft | 372 kts | 246° |
| 2026-05-07 17:20 | 54.39095 | 24.29413 | 23169 ft | 374 kts | 246° |
| 2026-05-07 17:20 | 54.38184 | 24.25203 | 23674 ft | 378 kts | 249° |
| 2026-05-07 17:21 | 54.37391 | 24.20891 | 24105 ft | 380 kts | 250° |
| 2026-05-07 17:21 | 54.36640 | 24.16535 | 24552 ft | 382 kts | 251° |
| 2026-05-07 17:21 | 54.35892 | 24.12149 | 25004 ft | 385 kts | 251° |
| 2026-05-07 17:21 | 54.35131 | 24.07730 | 25406 ft | 387 kts | 251° |
| 2026-05-07 17:22 | 54.34360 | 24.03307 | 25849 ft | 388 kts | 250° |
| 2026-05-07 17:22 | 54.33576 | 23.98864 | 26294 ft | 389 kts | 250° |
| 2026-05-07 17:22 | 54.32784 | 23.94415 | 26714 ft | 391 kts | 250° |
| 2026-05-07 17:22 | 54.31985 | 23.89952 | 27115 ft | 393 kts | 250° |
| 2026-05-07 17:23 | 54.31181 | 23.85480 | 27511 ft | 394 kts | 250° |
| 2026-05-07 17:23 | 54.30645 | 23.82504 | 27772 ft | 396 kts | 250° |
| 2026-05-07 17:23 | 54.29830 | 23.77995 | 28155 ft | 397 kts | 250° |
| 2026-05-07 17:23 | 54.28732 | 23.71931 | 28653 ft | 399 kts | 250° |
| 2026-05-07 17:24 | 54.27918 | 23.67445 | 29004 ft | 401 kts | 250° |
| 2026-05-07 17:24 | 54.27088 | 23.62882 | 29360 ft | 403 kts | 250° |
| 2026-05-07 17:24 | 54.26253 | 23.58304 | 29697 ft | 404 kts | 250° |
| 2026-05-07 17:24 | 54.25413 | 23.53709 | 30028 ft | 406 kts | 249° |
| 2026-05-07 17:25 | 54.24842 | 23.50588 | 30198 ft | 407 kts | 249° |
| 2026-05-07 17:25 | 54.23990 | 23.45946 | 30414 ft | 410 kts | 249° |
| 2026-05-07 17:25 | 54.23140 | 23.41329 | 31022 ft | 403 kts | 248° |
| 2026-05-07 17:25 | 54.22164 | 23.36901 | 31569 ft | 395 kts | 241° |
| 2026-05-07 17:26 | 54.20868 | 23.32783 | 31854 ft | 394 kts | 238° |
| 2026-05-07 17:26 | 54.19525 | 23.28684 | 32065 ft | 397 kts | 238° |
| 2026-05-07 17:26 | 54.18182 | 23.24565 | 32381 ft | 397 kts | 238° |
| 2026-05-07 17:26 | 54.16848 | 23.20445 | 32773 ft | 395 kts | 238° |
| 2026-05-07 17:27 | 54.15526 | 23.16351 | 33153 ft | 393 kts | 238° |
| 2026-05-07 17:27 | 54.14209 | 23.12265 | 33453 ft | 394 kts | 238° |
| 2026-05-07 17:27 | 54.12886 | 23.08166 | 33749 ft | 394 kts | 238° |
| 2026-05-07 17:27 | 54.11568 | 23.04081 | 34068 ft | 393 kts | 238° |
| 2026-05-07 17:28 | 54.10250 | 23.00009 | 34319 ft | 393 kts | 238° |
| 2026-05-07 17:28 | 54.08927 | 22.95932 | 34510 ft | 394 kts | 238° |
| 2026-05-07 17:28 | 54.06678 | 22.87304 | 34776 ft | 404 kts | 250° |
| 2026-05-07 17:29 | 54.06081 | 22.82614 | 35085 ft | 405 kts | 255° |
| 2026-05-07 17:29 | 54.05556 | 22.77915 | 35360 ft | 404 kts | 255° |
| 2026-05-07 17:29 | 54.05026 | 22.73203 | 35552 ft | 405 kts | 255° |
| 2026-05-07 17:29 | 54.04490 | 22.68493 | 35755 ft | 407 kts | 255° |
| 2026-05-07 17:30 | 54.03946 | 22.63759 | 35930 ft | 408 kts | 255° |
| 2026-05-07 17:30 | 54.03393 | 22.59004 | 35975 ft | 411 kts | 255° |
| 2026-05-07 17:30 | 54.02271 | 22.49446 | 35990 ft | 411 kts | 255° |
| 2026-05-07 17:31 | 54.01151 | 22.39986 | 35982 ft | 405 kts | 255° |
| 2026-05-07 17:31 | 54.00032 | 22.30617 | 35990 ft | 404 kts | 255° |
| 2026-05-07 17:32 | 53.98915 | 22.21335 | 35992 ft | 403 kts | 255° |
| 2026-05-07 17:32 | 53.97784 | 22.12006 | 35989 ft | 403 kts | 254° |
| 2026-05-07 17:33 | 53.96644 | 22.02667 | 35995 ft | 404 kts | 254° |
| 2026-05-07 17:33 | 53.95495 | 21.93316 | 36004 ft | 405 kts | 254° |
| 2026-05-07 17:34 | 53.94337 | 21.83952 | 35997 ft | 406 kts | 254° |
| 2026-05-07 17:34 | 53.93169 | 21.74572 | 35998 ft | 407 kts | 254° |
| 2026-05-07 17:35 | 53.91993 | 21.65185 | 36004 ft | 407 kts | 254° |
| 2026-05-07 17:35 | 53.90806 | 21.55780 | 36000 ft | 408 kts | 254° |
| 2026-05-07 17:36 | 53.89611 | 21.46376 | 36005 ft | 408 kts | 254° |
| 2026-05-07 17:36 | 53.88407 | 21.36969 | 36020 ft | 409 kts | 254° |
| 2026-05-07 17:37 | 53.87195 | 21.27553 | 36004 ft | 409 kts | 254° |
| 2026-05-07 17:37 | 53.85973 | 21.18132 | 36014 ft | 409 kts | 253° |
| 2026-05-07 17:38 | 53.84753 | 21.08778 | 36010 ft | 410 kts | 253° |
| 2026-05-07 17:38 | 53.83516 | 20.99367 | 36010 ft | 410 kts | 253° |
| 2026-05-07 17:39 | 53.82272 | 20.89956 | 36014 ft | 410 kts | 253° |
| 2026-05-07 17:39 | 53.81021 | 20.80553 | 36017 ft | 410 kts | 253° |
| 2026-05-07 17:40 | 53.79761 | 20.71149 | 36012 ft | 410 kts | 253° |
| 2026-05-07 17:40 | 53.78494 | 20.61749 | 36019 ft | 410 kts | 253° |
| 2026-05-07 17:41 | 53.77220 | 20.52359 | 36025 ft | 410 kts | 253° |
| 2026-05-07 17:41 | 53.75940 | 20.42983 | 36007 ft | 410 kts | 253° |
| 2026-05-07 17:42 | 53.74644 | 20.33545 | 36023 ft | 409 kts | 253° |
| 2026-05-07 17:42 | 53.73357 | 20.24238 | 36021 ft | 410 kts | 253° |
| 2026-05-07 17:43 | 53.72050 | 20.14850 | 36035 ft | 411 kts | 253° |
| 2026-05-07 17:43 | 53.70735 | 20.05451 | 36030 ft | 411 kts | 253° |
| 2026-05-07 17:44 | 53.69411 | 19.96050 | 36022 ft | 412 kts | 253° |
| 2026-05-07 17:44 | 53.68080 | 19.86662 | 36037 ft | 411 kts | 253° |
| 2026-05-07 17:45 | 53.66744 | 19.77288 | 36027 ft | 411 kts | 252° |
| 2026-05-07 17:45 | 53.65399 | 19.67918 | 36042 ft | 411 kts | 252° |
| 2026-05-07 17:46 | 53.64050 | 19.58568 | 36034 ft | 411 kts | 252° |
| 2026-05-07 17:46 | 53.62689 | 19.49200 | 36053 ft | 411 kts | 252° |
| 2026-05-07 17:47 | 53.61325 | 19.39858 | 36040 ft | 411 kts | 252° |
| 2026-05-07 17:47 | 53.59952 | 19.30514 | 36039 ft | 411 kts | 252° |
| 2026-05-07 17:48 | 53.58571 | 19.21172 | 36040 ft | 411 kts | 252° |
| 2026-05-07 17:48 | 53.57184 | 19.11845 | 36053 ft | 411 kts | 252° |
| 2026-05-07 17:49 | 53.55789 | 19.02518 | 36047 ft | 411 kts | 252° |
| 2026-05-07 17:49 | 53.54388 | 18.93199 | 36064 ft | 412 kts | 252° |
| 2026-05-07 17:50 | 53.52976 | 18.83862 | 36059 ft | 413 kts | 252° |
| 2026-05-07 17:50 | 53.50837 | 18.75020 | 36057 ft | 407 kts | 236° |
| 2026-05-07 17:51 | 53.47602 | 18.67239 | 36054 ft | 407 kts | 232° |
| 2026-05-07 17:51 | 53.44290 | 18.59501 | 36056 ft | 409 kts | 232° |
| 2026-05-07 17:52 | 53.40983 | 18.51738 | 36058 ft | 410 kts | 232° |
| 2026-05-07 17:52 | 53.37691 | 18.43994 | 36053 ft | 411 kts | 232° |
| 2026-05-07 17:53 | 53.34349 | 18.36141 | 36054 ft | 412 kts | 232° |
| 2026-05-07 17:53 | 53.31044 | 18.28396 | 36049 ft | 412 kts | 232° |
| 2026-05-07 17:54 | 53.27712 | 18.20612 | 36058 ft | 412 kts | 232° |
| 2026-05-07 17:54 | 53.24365 | 18.12820 | 36056 ft | 413 kts | 232° |
| 2026-05-07 17:55 | 53.21009 | 18.05030 | 36051 ft | 414 kts | 232° |
| 2026-05-07 17:55 | 53.17647 | 17.97249 | 36050 ft | 414 kts | 232° |
| 2026-05-07 17:56 | 53.14272 | 17.89462 | 36050 ft | 415 kts | 232° |
| 2026-05-07 17:56 | 53.10890 | 17.81683 | 36050 ft | 415 kts | 232° |
| 2026-05-07 17:57 | 53.08073 | 17.75222 | 36055 ft | 415 kts | 232° |
| 2026-05-07 17:57 | 53.04261 | 17.66506 | 36055 ft | 415 kts | 232° |
| 2026-05-07 17:58 | 53.00941 | 17.58939 | 36049 ft | 415 kts | 232° |
| 2026-05-07 17:58 | 52.97534 | 17.51196 | 36053 ft | 415 kts | 232° |
| 2026-05-07 17:59 | 52.94122 | 17.43467 | 36061 ft | 416 kts | 232° |
| 2026-05-07 17:59 | 52.90696 | 17.35728 | 36057 ft | 416 kts | 232° |
| 2026-05-07 18:00 | 52.87266 | 17.28004 | 36051 ft | 415 kts | 232° |
| 2026-05-07 18:00 | 52.83884 | 17.20409 | 36046 ft | 407 kts | 232° |
| 2026-05-07 18:01 | 52.80527 | 17.12895 | 35777 ft | 409 kts | 231° |
| 2026-05-07 18:01 | 52.77203 | 17.05474 | 35588 ft | 390 kts | 231° |
| 2026-05-07 18:02 | 52.74071 | 16.98497 | 34847 ft | 371 kts | 231° |
| 2026-05-07 18:02 | 52.72521 | 16.95056 | 34526 ft | 376 kts | 231° |
| 2026-05-07 18:02 | 52.70990 | 16.91667 | 34285 ft | 383 kts | 230° |
| 2026-05-07 18:03 | 52.69388 | 16.88125 | 34015 ft | 389 kts | 230° |
| 2026-05-07 18:03 | 52.67775 | 16.84560 | 33691 ft | 391 kts | 230° |
| 2026-05-07 18:03 | 52.66150 | 16.80971 | 33365 ft | 391 kts | 230° |
| 2026-05-07 18:03 | 52.64527 | 16.77390 | 33045 ft | 391 kts | 230° |
| 2026-05-07 18:04 | 52.62901 | 16.73807 | 32753 ft | 390 kts | 230° |
| 2026-05-07 18:04 | 52.61274 | 16.70228 | 32423 ft | 391 kts | 231° |
| 2026-05-07 18:04 | 52.59642 | 16.66645 | 32118 ft | 392 kts | 231° |
| 2026-05-07 18:04 | 52.58007 | 16.63057 | 31816 ft | 392 kts | 231° |
| 2026-05-07 18:05 | 52.56367 | 16.59465 | 31511 ft | 393 kts | 231° |
| 2026-05-07 18:05 | 52.54723 | 16.55871 | 31232 ft | 394 kts | 231° |
| 2026-05-07 18:05 | 52.53079 | 16.52278 | 31302 ft | 393 kts | 231° |
| 2026-05-07 18:06 | 52.49785 | 16.45100 | 31366 ft | 395 kts | 231° |
| 2026-05-07 18:06 | 52.46446 | 16.37845 | 31218 ft | 402 kts | 231° |
| 2026-05-07 18:06 | 52.44752 | 16.34173 | 31102 ft | 404 kts | 231° |
| 2026-05-07 18:07 | 52.43055 | 16.30497 | 30941 ft | 407 kts | 231° |
| 2026-05-07 18:07 | 52.41329 | 16.26767 | 30576 ft | 415 kts | 230° |
| 2026-05-07 18:07 | 52.39572 | 16.22973 | 30247 ft | 420 kts | 230° |
| 2026-05-07 18:07 | 52.37794 | 16.19141 | 29576 ft | 424 kts | 231° |
| 2026-05-07 18:08 | 52.36034 | 16.15348 | 29007 ft | 409 kts | 231° |
| 2026-05-07 18:08 | 52.34345 | 16.11708 | 28533 ft | 394 kts | 231° |
| 2026-05-07 18:08 | 52.32719 | 16.08213 | 28148 ft | 379 kts | 231° |
| 2026-05-07 18:08 | 52.31146 | 16.04840 | 27766 ft | 366 kts | 231° |
| 2026-05-07 18:09 | 52.29636 | 16.01575 | 27403 ft | 355 kts | 234° |
| 2026-05-07 18:09 | 52.28501 | 15.98076 | 27123 ft | 345 kts | 249° |
| 2026-05-07 18:09 | 52.27859 | 15.94343 | 26857 ft | 342 kts | 258° |
| 2026-05-07 18:09 | 52.27569 | 15.90449 | 26651 ft | 351 kts | 263° |
| 2026-05-07 18:10 | 52.27366 | 15.86430 | 26407 ft | 358 kts | 264° |
| 2026-05-07 18:10 | 52.27239 | 15.83747 | 26236 ft | 356 kts | 264° |
| 2026-05-07 18:10 | 52.27052 | 15.79741 | 25975 ft | 352 kts | 264° |
| 2026-05-07 18:10 | 52.26862 | 15.75764 | 25721 ft | 350 kts | 264° |
| 2026-05-07 18:11 | 52.26677 | 15.71987 | 25486 ft | 349 kts | 264° |
| 2026-05-07 18:11 | 52.26476 | 15.68006 | 25253 ft | 354 kts | 264° |
| 2026-05-07 18:11 | 52.26269 | 15.63989 | 25010 ft | 354 kts | 263° |
| 2026-05-07 18:11 | 52.26062 | 15.60009 | 24758 ft | 350 kts | 263° |
| 2026-05-07 18:12 | 52.25855 | 15.56080 | 24512 ft | 346 kts | 263° |
| 2026-05-07 18:12 | 52.25649 | 15.52200 | 24268 ft | 342 kts | 263° |
| 2026-05-07 18:12 | 52.25442 | 15.48342 | 24029 ft | 340 kts | 263° |
| 2026-05-07 18:12 | 52.25234 | 15.44504 | 23795 ft | 338 kts | 264° |
| 2026-05-07 18:13 | 52.25026 | 15.40688 | 23544 ft | 337 kts | 264° |
| 2026-05-07 18:13 | 52.24818 | 15.36881 | 23270 ft | 336 kts | 264° |
| 2026-05-07 18:13 | 52.24609 | 15.33080 | 22994 ft | 336 kts | 264° |
| 2026-05-07 18:13 | 52.24399 | 15.29290 | 22719 ft | 335 kts | 264° |
| 2026-05-07 18:14 | 52.24188 | 15.25511 | 22450 ft | 335 kts | 264° |
| 2026-05-07 18:14 | 52.23976 | 15.21727 | 22182 ft | 334 kts | 264° |
| 2026-05-07 18:14 | 52.23764 | 15.17962 | 21906 ft | 334 kts | 264° |
| 2026-05-07 18:14 | 52.23550 | 15.14193 | 21655 ft | 333 kts | 264° |
| 2026-05-07 18:15 | 52.23336 | 15.10446 | 21395 ft | 332 kts | 264° |
| 2026-05-07 18:15 | 52.23132 | 15.06881 | 21144 ft | 331 kts | 264° |
| 2026-05-07 18:15 | 52.22916 | 15.03147 | 20889 ft | 330 kts | 264° |
| 2026-05-07 18:15 | 52.22701 | 14.99437 | 20632 ft | 328 kts | 264° |
| 2026-05-07 18:16 | 52.22486 | 14.95740 | 20383 ft | 326 kts | 264° |
| 2026-05-07 18:16 | 52.22272 | 14.92084 | 20147 ft | 323 kts | 264° |
| 2026-05-07 18:16 | 52.22057 | 14.88444 | 19832 ft | 321 kts | 264° |
| 2026-05-07 18:16 | 52.21843 | 14.84834 | 19428 ft | 318 kts | 264° |
| 2026-05-07 18:17 | 52.21631 | 14.81269 | 19030 ft | 314 kts | 264° |
| 2026-05-07 18:17 | 52.21420 | 14.77738 | 18644 ft | 311 kts | 264° |
| 2026-05-07 18:17 | 52.21210 | 14.74248 | 18261 ft | 308 kts | 264° |
| 2026-05-07 18:17 | 52.21003 | 14.70830 | 17822 ft | 306 kts | 264° |
| 2026-05-07 18:18 | 52.20795 | 14.67396 | 17396 ft | 303 kts | 264° |
| 2026-05-07 18:18 | 52.20586 | 14.63983 | 16967 ft | 301 kts | 264° |
| 2026-05-07 18:18 | 52.20379 | 14.60597 | 16547 ft | 299 kts | 264° |
| 2026-05-07 18:18 | 52.20171 | 14.57235 | 16142 ft | 297 kts | 264° |
| 2026-05-07 18:19 | 52.19964 | 14.53890 | 15733 ft | 296 kts | 264° |
| 2026-05-07 18:19 | 52.19758 | 14.50568 | 15338 ft | 294 kts | 264° |
| 2026-05-07 18:19 | 52.19550 | 14.47252 | 14939 ft | 293 kts | 264° |
| 2026-05-07 18:19 | 52.19344 | 14.43960 | 14553 ft | 292 kts | 264° |
| 2026-05-07 18:20 | 52.19137 | 14.40677 | 14158 ft | 291 kts | 264° |
| 2026-05-07 18:20 | 52.18929 | 14.37403 | 13775 ft | 290 kts | 264° |
| 2026-05-07 18:20 | 52.18722 | 14.34137 | 13343 ft | 289 kts | 264° |
| 2026-05-07 18:20 | 52.18514 | 14.30882 | 12980 ft | 287 kts | 264° |
| 2026-05-07 18:21 | 52.18309 | 14.27692 | 12708 ft | 282 kts | 264° |
| 2026-05-07 18:21 | 52.18104 | 14.24516 | 12468 ft | 285 kts | 264° |
| 2026-05-07 18:21 | 52.17895 | 14.21289 | 12216 ft | 288 kts | 264° |
| 2026-05-07 18:21 | 52.17684 | 14.18043 | 11957 ft | 287 kts | 264° |
| 2026-05-07 18:22 | 52.17474 | 14.14818 | 11707 ft | 286 kts | 264° |
| 2026-05-07 18:22 | 52.17334 | 14.12683 | 11534 ft | 285 kts | 264° |
| 2026-05-07 18:22 | 52.17493 | 14.08428 | 11178 ft | 284 kts | 291° |
| 2026-05-07 18:22 | 52.18565 | 14.05770 | 10935 ft | 283 kts | 317° |
| 2026-05-07 18:23 | 52.20249 | 14.04191 | 10691 ft | 283 kts | 344° |
| 2026-05-07 18:23 | 52.22202 | 14.04008 | 10446 ft | 283 kts | 9° |
| 2026-05-07 18:23 | 52.24150 | 14.04296 | 10196 ft | 283 kts | 352° |
| 2026-05-07 18:23 | 52.25980 | 14.03230 | 9964 ft | 281 kts | 325° |
| 2026-05-07 18:24 | 52.27296 | 14.00955 | 9695 ft | 276 kts | 298° |
| 2026-05-07 18:24 | 52.27829 | 13.97994 | 9428 ft | 272 kts | 275° |
| 2026-05-07 18:24 | 52.27899 | 13.94904 | 9178 ft | 273 kts | 271° |
| 2026-05-07 18:24 | 52.27905 | 13.91786 | 8922 ft | 276 kts | 270° |
| 2026-05-07 18:25 | 52.27900 | 13.88644 | 8660 ft | 275 kts | 270° |
| 2026-05-07 18:25 | 52.27882 | 13.85536 | 8399 ft | 274 kts | 267° |
| 2026-05-07 18:25 | 52.27639 | 13.82451 | 8174 ft | 273 kts | 261° |
| 2026-05-07 18:25 | 52.27312 | 13.79392 | 8116 ft | 274 kts | 260° |
| 2026-05-07 18:26 | 52.26974 | 13.76339 | 8100 ft | 273 kts | 260° |
| 2026-05-07 18:26 | 52.26633 | 13.73288 | 8096 ft | 273 kts | 260° |
| 2026-05-07 18:26 | 52.26291 | 13.70247 | 8096 ft | 273 kts | 260° |
| 2026-05-07 18:26 | 52.25947 | 13.67195 | 8098 ft | 273 kts | 260° |
| 2026-05-07 18:27 | 52.25602 | 13.64138 | 8099 ft | 273 kts | 260° |
| 2026-05-07 18:27 | 52.25257 | 13.61083 | 7913 ft | 276 kts | 260° |
| 2026-05-07 18:27 | 52.24909 | 13.58011 | 7664 ft | 274 kts | 260° |
| 2026-05-07 18:27 | 52.24562 | 13.54960 | 7407 ft | 272 kts | 260° |
| 2026-05-07 18:28 | 52.24216 | 13.51931 | 7163 ft | 271 kts | 260° |
| 2026-05-07 18:28 | 52.23875 | 13.48960 | 6913 ft | 269 kts | 260° |
| 2026-05-07 18:28 | 52.23523 | 13.45912 | 6668 ft | 270 kts | 260° |
| 2026-05-07 18:28 | 52.23176 | 13.42899 | 6425 ft | 270 kts | 260° |
| 2026-05-07 18:29 | 52.22838 | 13.39995 | 6190 ft | 270 kts | 260° |
| 2026-05-07 18:29 | 52.22491 | 13.37052 | 6112 ft | 263 kts | 260° |
| 2026-05-07 18:29 | 52.22157 | 13.34252 | 6109 ft | 241 kts | 260° |
| 2026-05-07 18:29 | 52.21843 | 13.31646 | 5832 ft | 229 kts | 260° |
| 2026-05-07 18:30 | 52.21537 | 13.29126 | 5458 ft | 223 kts | 260° |
| 2026-05-07 18:30 | 52.21237 | 13.26704 | 5189 ft | 212 kts | 260° |
| 2026-05-07 18:30 | 52.21053 | 13.24367 | 4901 ft | 205 kts | 279° |
| 2026-05-07 18:30 | 52.21549 | 13.22248 | 4577 ft | 201 kts | 303° |
| 2026-05-07 18:31 | 52.22287 | 13.20277 | 4193 ft | 205 kts | 304° |
| 2026-05-07 18:31 | 52.23033 | 13.18324 | 4006 ft | 198 kts | 304° |
| 2026-05-07 18:31 | 52.23750 | 13.16442 | 3985 ft | 195 kts | 305° |
| 2026-05-07 18:31 | 52.24474 | 13.14549 | 4003 ft | 199 kts | 305° |
| 2026-05-07 18:32 | 52.25214 | 13.12618 | 4002 ft | 202 kts | 305° |
| 2026-05-07 18:32 | 52.26023 | 13.10763 | 3970 ft | 199 kts | 321° |
| 2026-05-07 18:32 | 52.27233 | 13.09898 | 3981 ft | 189 kts | 0° |
| 2026-05-07 18:32 | 52.28465 | 13.10458 | 3989 ft | 185 kts | 34° |
| 2026-05-07 18:33 | 52.29526 | 13.11646 | 3981 ft | 187 kts | 35° |
| 2026-05-07 18:33 | 52.30599 | 13.12873 | 3989 ft | 189 kts | 42° |
| 2026-05-07 18:33 | 52.31291 | 13.14701 | 3705 ft | 197 kts | 79° |